createdAt,value
2022-10-22T00:00:03.807Z,7.95
2022-10-22T00:02:31.910Z,8.60
2022-10-22T00:04:58.841Z,6.55
2022-10-22T00:07:25.789Z,6.50
2022-10-22T00:09:52.713Z,9.03
2022-10-22T00:12:19.817Z,10.63
2022-10-22T00:14:47.859Z,10.85
2022-10-22T00:17:14.939Z,9.53
2022-10-22T00:19:41.876Z,12.10
2022-10-22T00:22:10.031Z,9.80
2022-10-22T00:24:38.623Z,6.60
2022-10-22T00:27:07.178Z,14.60
2022-10-22T00:29:34.163Z,8.50
2022-10-22T00:32:01.012Z,10.43
2022-10-22T00:34:28.295Z,7.65
2022-10-22T00:36:55.517Z,11.77
2022-10-22T00:39:24.210Z,8.88
2022-10-22T00:41:53.405Z,8.18
2022-10-22T00:44:57.494Z,8.38
2022-10-22T00:47:25.442Z,9.05
2022-10-22T00:49:53.814Z,10.63
2022-10-22T00:52:21.527Z,10.23
2022-10-22T00:54:48.995Z,9.38
2022-10-22T00:57:17.591Z,10.98
2022-10-22T00:59:44.455Z,10.05
2022-10-22T01:02:11.335Z,10.75
2022-10-22T01:04:38.246Z,7.00
2022-10-22T01:07:05.632Z,11.55
2022-10-22T01:09:37.341Z,12.90
2022-10-22T01:12:10.419Z,10.00
2022-10-22T01:14:49.197Z,8.90
2022-10-22T01:17:24.883Z,11.10
2022-10-22T01:20:10.492Z,13.43
2022-10-22T01:22:58.687Z,13.52
2022-10-22T01:25:37.072Z,10.30
2022-10-22T01:28:19.962Z,9.77
2022-10-22T01:30:50.954Z,10.70
2022-10-22T01:33:20.146Z,13.27
2022-10-22T01:35:47.240Z,8.60
2022-10-22T01:38:21.378Z,5.77
2022-10-22T01:40:48.912Z,8.57
2022-10-22T01:43:16.711Z,7.63
2022-10-22T01:45:57.870Z,8.68
2022-10-22T01:48:52.508Z,6.25
2022-10-22T01:51:25.381Z,9.82
2022-10-22T01:54:10.038Z,18.17
2022-10-22T01:56:45.790Z,16.15
2022-10-22T01:59:25.305Z,13.20
2022-10-22T02:01:59.019Z,13.73
2022-10-22T02:04:50.890Z,17.10
2022-10-22T02:07:21.388Z,14.00
2022-10-22T02:09:51.020Z,9.13
2022-10-22T02:12:19.241Z,14.23
2022-10-22T02:14:49.486Z,11.65
2022-10-22T02:17:21.354Z,12.82
2022-10-22T02:19:54.828Z,11.93
2022-10-22T02:22:21.780Z,11.63
2022-10-22T02:24:49.782Z,10.27
2022-10-22T02:27:25.928Z,14.05
2022-10-22T02:30:14.093Z,11.80
2022-10-22T02:33:00.312Z,11.17
2022-10-22T02:35:28.975Z,9.80
2022-10-22T02:37:57.458Z,10.57
2022-10-22T02:40:25.115Z,9.38
2022-10-22T02:42:53.002Z,13.15
2022-10-22T02:45:20.567Z,13.02
2022-10-22T02:47:47.813Z,15.18
2022-10-22T02:50:14.804Z,11.43
2022-10-22T02:52:42.110Z,11.02
2022-10-22T02:55:09.522Z,13.23
2022-10-22T02:57:36.588Z,11.18
2022-10-22T03:00:05.464Z,12.15
2022-10-22T03:02:32.297Z,14.20
2022-10-22T03:04:59.158Z,11.63
2022-10-22T03:07:26.067Z,11.30
2022-10-22T03:09:52.943Z,10.52
2022-10-22T03:12:19.790Z,15.45
2022-10-22T03:14:46.671Z,9.83
2022-10-22T03:17:13.591Z,12.75
2022-10-22T03:19:40.397Z,12.33
2022-10-22T03:22:15.593Z,12.80
2022-10-22T03:24:45.333Z,11.43
2022-10-22T03:27:15.066Z,17.27
2022-10-22T03:29:42.719Z,12.70
2022-10-22T03:32:09.632Z,14.00
2022-10-22T03:34:36.430Z,12.70
2022-10-22T03:37:03.348Z,15.23
2022-10-22T03:39:33.146Z,19.15
2022-10-22T03:42:00.947Z,10.48
2022-10-22T03:44:28.473Z,11.60
2022-10-22T03:46:58.686Z,11.23
2022-10-22T03:49:28.626Z,9.65
2022-10-22T03:51:55.884Z,11.70
2022-10-22T03:54:22.733Z,14.95
2022-10-22T03:56:49.516Z,14.13
2022-10-22T03:59:16.428Z,15.00
2022-10-22T04:01:43.278Z,12.07
2022-10-22T04:04:10.118Z,16.55
2022-10-22T04:06:36.965Z,15.20
2022-10-22T04:09:04.017Z,21.27
2022-10-22T04:11:31.047Z,16.65
2022-10-22T04:13:57.943Z,15.50
2022-10-22T04:16:27.423Z,12.40
2022-10-22T04:18:57.641Z,12.50
2022-10-22T04:21:25.014Z,18.40
2022-10-22T04:23:53.270Z,15.85
2022-10-22T04:26:21.089Z,16.52
2022-10-22T04:28:49.399Z,14.07
2022-10-22T04:31:21.649Z,11.33
2022-10-22T04:33:52.944Z,13.63
2022-10-22T04:36:20.005Z,15.50
2022-10-22T04:38:48.192Z,11.23
2022-10-22T04:41:24.094Z,9.43
2022-10-22T04:43:51.066Z,15.38
2022-10-22T04:46:18.806Z,21.60
2022-10-22T04:48:47.002Z,11.57
2022-10-22T04:51:19.267Z,16.20
2022-10-22T04:53:46.623Z,17.27
2022-10-22T04:56:16.393Z,15.93
2022-10-22T04:58:44.123Z,14.77
2022-10-22T05:01:19.719Z,11.52
2022-10-22T05:03:50.179Z,17.60
2022-10-22T05:06:17.998Z,15.15
2022-10-22T05:08:44.966Z,14.27
2022-10-22T05:11:23.556Z,13.93
2022-10-22T05:13:50.517Z,17.48
2022-10-22T05:16:17.524Z,9.20
2022-10-22T05:18:45.802Z,9.23
2022-10-22T05:21:18.561Z,9.73
2022-10-22T05:23:47.225Z,9.48
2022-10-22T05:26:17.232Z,14.13
2022-10-22T05:28:44.097Z,9.95
2022-10-22T05:31:12.795Z,13.98
2022-10-22T05:33:40.250Z,14.93
2022-10-22T05:36:08.765Z,14.65
2022-10-22T05:38:36.122Z,11.45
2022-10-22T05:41:06.760Z,9.02
2022-10-22T05:43:34.353Z,15.13
2022-10-22T05:46:10.091Z,14.63
2022-10-22T05:48:37.735Z,26.83
2022-10-22T05:51:10.253Z,17.08
2022-10-22T05:53:39.895Z,12.30
2022-10-22T05:56:12.310Z,7.97
2022-10-22T05:58:39.308Z,9.38
2022-10-22T06:01:20.355Z,16.07
2022-10-22T06:03:48.506Z,14.90
2022-10-22T06:06:21.802Z,10.95
2022-10-22T06:08:50.705Z,14.48
2022-10-22T06:11:18.808Z,9.90
2022-10-22T06:13:46.387Z,11.90
2022-10-22T06:16:13.993Z,10.75
2022-10-22T06:18:41.183Z,13.52
2022-10-22T06:21:10.866Z,10.35
2022-10-22T06:23:39.172Z,13.05
2022-10-22T06:26:07.362Z,19.55
2022-10-22T06:28:34.432Z,11.30
2022-10-22T06:31:03.983Z,12.43
2022-10-22T06:33:32.945Z,11.32
2022-10-22T06:36:13.673Z,10.80
2022-10-22T06:38:41.185Z,14.60
2022-10-22T06:41:13.349Z,8.88
2022-10-22T06:43:41.566Z,16.67
2022-10-22T06:46:09.952Z,13.10
2022-10-22T06:48:38.014Z,13.45
2022-10-22T06:51:07.863Z,10.27
2022-10-22T06:53:35.342Z,9.00
2022-10-22T06:56:10.339Z,13.97
2022-10-22T06:58:37.265Z,12.85
2022-10-22T07:01:14.963Z,9.63
2022-10-22T07:03:42.521Z,23.35
2022-10-22T07:06:12.283Z,30.00
2022-10-22T07:08:40.252Z,33.97
2022-10-22T07:11:26.221Z,36.80
2022-10-22T07:13:55.812Z,32.33
2022-10-22T07:16:23.592Z,28.70
2022-10-22T07:18:52.530Z,32.70
2022-10-22T07:21:20.504Z,30.10
2022-10-22T07:23:47.655Z,31.73
2022-10-22T07:26:16.374Z,30.27
2022-10-22T07:28:43.584Z,31.25
2022-10-22T07:31:12.755Z,29.45
2022-10-22T07:33:40.311Z,30.90
2022-10-22T07:36:10.210Z,30.13
2022-10-22T07:38:37.121Z,30.15
2022-10-22T07:41:04.247Z,29.02
2022-10-22T07:43:31.176Z,26.42
2022-10-22T07:45:59.609Z,23.92
2022-10-22T07:48:26.541Z,19.50
2022-10-22T07:50:53.470Z,22.67
2022-10-22T07:53:24.161Z,33.15
2022-10-22T07:55:51.891Z,30.02
2022-10-22T07:58:20.054Z,32.03
2022-10-22T08:00:47.473Z,35.73
2022-10-22T08:03:16.238Z,34.22
2022-10-22T08:05:46.280Z,31.50
2022-10-22T08:08:14.891Z,30.38
2022-10-22T08:10:42.114Z,25.88
2022-10-22T08:13:09.199Z,27.40
2022-10-22T08:15:36.544Z,23.47
2022-10-22T08:18:03.647Z,29.58
2022-10-22T08:20:30.475Z,27.30
2022-10-22T08:22:57.931Z,30.75
2022-10-22T08:25:25.117Z,26.63
2022-10-22T08:27:52.225Z,23.98
2022-10-22T08:30:19.566Z,13.43
2022-10-22T08:32:46.824Z,11.40
2022-10-22T08:35:16.980Z,16.05
2022-10-22T08:37:45.646Z,12.18
2022-10-22T08:40:23.279Z,9.52
2022-10-22T08:43:23.942Z,9.70
2022-10-22T08:46:11.077Z,25.55
2022-10-22T08:48:52.506Z,19.35
2022-10-22T08:51:27.207Z,10.98
2022-10-22T08:54:15.265Z,13.73
2022-10-22T08:56:47.865Z,14.48
2022-10-22T08:59:16.366Z,14.52
2022-10-22T09:01:47.054Z,9.93
2022-10-22T09:04:14.009Z,19.40
2022-10-22T09:06:41.776Z,19.52
2022-10-22T09:09:16.599Z,27.07
2022-10-22T09:11:49.830Z,23.10
2022-10-22T09:14:22.537Z,12.80
2022-10-22T09:16:55.124Z,13.82
2022-10-22T09:19:33.033Z,11.20
2022-10-22T09:22:17.416Z,12.18
2022-10-22T09:24:49.441Z,14.35
2022-10-22T09:27:25.722Z,24.92
2022-10-22T09:29:52.623Z,13.02
2022-10-22T09:32:19.841Z,10.15
2022-10-22T09:34:48.067Z,16.40
2022-10-22T09:37:18.564Z,11.13
2022-10-22T09:39:48.343Z,11.65
2022-10-22T09:42:18.103Z,9.38
2022-10-22T09:44:55.030Z,13.25
2022-10-22T09:47:43.430Z,9.05
2022-10-22T09:50:22.797Z,14.43
2022-10-22T09:53:04.801Z,8.20
2022-10-22T09:55:32.221Z,13.38
2022-10-22T09:58:00.783Z,10.52
2022-10-22T10:00:29.611Z,9.32
2022-10-22T10:02:58.641Z,8.48
2022-10-22T10:05:30.197Z,8.13
2022-10-22T10:07:58.242Z,9.15
2022-10-22T10:10:38.751Z,11.00
2022-10-22T10:13:14.812Z,10.43
2022-10-22T10:16:28.689Z,19.13
2022-10-22T10:19:01.596Z,8.57
2022-10-22T10:21:49.491Z,35.22
2022-10-22T10:24:50.442Z,11.15
2022-10-22T10:27:32.299Z,10.90
2022-10-22T10:30:04.025Z,10.73
2022-10-22T10:32:33.647Z,34.23
2022-10-22T10:35:18.473Z,18.20
2022-10-22T10:37:54.067Z,22.63
2022-10-22T10:40:40.151Z,32.22
2022-10-22T10:43:41.712Z,35.75
2022-10-22T10:46:25.492Z,42.30
2022-10-22T10:48:58.774Z,26.50
2022-10-22T10:51:43.712Z,36.47
2022-10-22T10:54:28.866Z,48.78
2022-10-22T10:57:11.948Z,38.78
2022-10-22T11:00:24.827Z,51.67
2022-10-22T11:03:22.074Z,41.22
2022-10-22T11:05:55.611Z,37.55
2022-10-22T11:08:28.993Z,27.70
2022-10-22T11:11:14.297Z,33.97
2022-10-22T11:14:03.464Z,35.25
2022-10-22T11:16:55.625Z,38.90
2022-10-22T11:19:53.111Z,22.50
2022-10-22T11:22:37.364Z,24.42
2022-10-22T11:25:13.464Z,18.40
2022-10-22T11:27:58.560Z,17.90
2022-10-22T11:30:37.875Z,19.33
2022-10-22T11:33:11.300Z,23.42
2022-10-22T11:35:42.438Z,21.50
2022-10-22T11:38:15.048Z,19.55
2022-10-22T11:41:11.830Z,22.10
2022-10-22T11:44:21.515Z,22.70
2022-10-22T11:47:08.584Z,24.10
2022-10-22T11:49:44.248Z,17.77
2022-10-22T11:52:37.213Z,26.20
2022-10-22T11:55:55.552Z,27.30
2022-10-22T11:58:32.994Z,24.15
2022-10-22T12:01:03.006Z,25.10
2022-10-22T12:03:33.017Z,28.38
2022-10-22T12:06:19.706Z,32.80
2022-10-22T12:08:49.586Z,26.10
2022-10-22T12:11:19.482Z,20.20
2022-10-22T12:14:02.629Z,16.70
2022-10-22T12:16:56.219Z,19.63
2022-10-22T12:19:23.958Z,34.10
2022-10-22T12:21:58.248Z,31.30
2022-10-22T12:24:29.372Z,27.93
2022-10-22T12:26:56.374Z,28.70
2022-10-22T12:29:25.541Z,39.58
2022-10-22T12:31:52.718Z,31.47
2022-10-22T12:34:23.651Z,32.38
2022-10-22T12:36:53.201Z,30.38
2022-10-22T12:39:26.594Z,20.77
2022-10-22T12:41:54.799Z,11.05
2022-10-22T12:44:21.668Z,17.35
2022-10-22T12:46:53.057Z,33.55
2022-10-22T12:49:36.448Z,33.75
2022-10-22T12:52:14.062Z,40.55
2022-10-22T12:54:41.239Z,34.07
2022-10-22T12:57:16.524Z,33.67
2022-10-22T12:59:49.952Z,36.15
2022-10-22T13:02:27.748Z,37.25
2022-10-22T13:05:20.633Z,31.52
2022-10-22T13:07:50.819Z,14.98
2022-10-22T13:10:19.651Z,15.68
2022-10-22T13:12:51.325Z,18.45
2022-10-22T13:15:28.610Z,19.50
2022-10-22T13:18:05.943Z,15.98
2022-10-22T13:20:33.462Z,16.73
2022-10-22T13:23:02.807Z,19.90
2022-10-22T13:25:30.904Z,14.25
2022-10-22T13:28:20.510Z,18.58
2022-10-22T13:30:59.413Z,15.57
2022-10-22T13:33:29.032Z,16.17
2022-10-22T13:35:56.984Z,20.08
2022-10-22T13:38:26.281Z,16.27
2022-10-22T13:40:53.375Z,20.85
2022-10-22T13:43:20.637Z,28.30
2022-10-22T13:45:51.961Z,21.75
2022-10-22T13:48:22.011Z,30.83
2022-10-22T13:50:50.563Z,31.65
2022-10-22T13:53:20.779Z,29.25
2022-10-22T13:55:47.926Z,19.77
2022-10-22T13:58:19.921Z,15.48
2022-10-22T14:00:54.950Z,18.50
2022-10-22T14:03:26.115Z,25.50
2022-10-22T14:05:53.113Z,25.60
2022-10-22T14:08:22.604Z,17.48
2022-10-22T14:10:49.475Z,14.60
2022-10-22T14:13:18.974Z,18.02
2022-10-22T14:15:48.321Z,16.33
2022-10-22T14:18:35.775Z,15.93
2022-10-22T14:21:07.302Z,15.32
2022-10-22T14:23:35.954Z,14.85
2022-10-22T14:26:04.050Z,18.83
2022-10-22T14:28:34.222Z,15.15
2022-10-22T14:31:04.175Z,10.32
2022-10-22T14:33:33.621Z,11.05
2022-10-22T14:36:01.657Z,12.77
2022-10-22T14:38:29.170Z,16.13
2022-10-22T14:40:56.353Z,15.57
2022-10-22T14:43:28.515Z,15.33
2022-10-22T14:45:55.404Z,20.48
2022-10-22T14:48:22.247Z,15.55
2022-10-22T14:50:49.443Z,14.68
2022-10-22T14:53:16.864Z,16.35
2022-10-22T14:55:45.188Z,14.68
2022-10-22T14:58:12.474Z,15.07
2022-10-22T15:00:42.272Z,11.55
2022-10-22T15:03:09.990Z,11.93
2022-10-22T15:05:42.117Z,13.43
2022-10-22T15:08:09.012Z,12.98
2022-10-22T15:10:36.058Z,13.03
2022-10-22T15:13:02.957Z,17.10
2022-10-22T15:15:34.206Z,10.75
2022-10-22T15:18:06.192Z,15.37
2022-10-22T15:20:33.073Z,11.20
2022-10-22T15:23:00.449Z,12.68
2022-10-22T15:25:27.553Z,17.63
2022-10-22T15:27:58.527Z,15.20
2022-10-22T15:30:31.753Z,11.45
2022-10-22T15:32:58.571Z,12.95
2022-10-22T15:35:28.714Z,17.10
2022-10-22T15:37:55.710Z,11.13
2022-10-22T15:40:22.604Z,14.10
2022-10-22T15:42:49.459Z,13.53
2022-10-22T15:45:16.565Z,12.57
2022-10-22T15:47:48.316Z,14.90
2022-10-22T15:50:16.365Z,24.35
2022-10-22T15:52:43.249Z,14.35
2022-10-22T15:55:10.650Z,14.60
2022-10-22T15:57:39.194Z,25.40
2022-10-22T16:00:07.540Z,31.23
2022-10-22T16:02:39.332Z,18.20
2022-10-22T16:05:06.759Z,27.17
2022-10-22T16:07:33.672Z,24.52
2022-10-22T16:10:01.614Z,20.40
2022-10-22T16:12:28.582Z,25.77
2022-10-22T16:14:55.422Z,23.08
2022-10-22T16:17:22.316Z,18.25
2022-10-22T16:19:49.771Z,13.10
2022-10-22T16:22:16.646Z,19.30
2022-10-22T16:24:43.503Z,25.02
2022-10-22T16:27:10.936Z,22.45
2022-10-22T16:29:41.981Z,19.85
2022-10-22T16:32:08.901Z,17.05
2022-10-22T16:34:35.723Z,25.33
2022-10-22T16:37:02.640Z,37.55
2022-10-22T16:39:29.495Z,17.30
2022-10-22T16:41:56.363Z,24.30
2022-10-22T16:44:23.770Z,20.40
2022-10-22T16:46:50.719Z,16.73
2022-10-22T16:49:17.587Z,35.60
2022-10-22T16:51:44.439Z,45.10
2022-10-22T16:54:14.072Z,18.35
2022-10-22T16:56:41.113Z,15.88
2022-10-22T16:59:08.046Z,25.05
2022-10-22T17:01:40.369Z,17.02
2022-10-22T17:04:08.346Z,17.88
2022-10-22T17:06:35.461Z,23.67
2022-10-22T17:09:02.296Z,16.03
2022-10-22T17:11:34.777Z,21.30
2022-10-22T17:14:02.808Z,28.17
2022-10-22T17:16:30.009Z,26.55
2022-10-22T17:18:58.145Z,35.78
2022-10-22T17:21:25.173Z,31.55
2022-10-22T17:23:56.959Z,21.95
2022-10-22T17:26:26.460Z,35.97
2022-10-22T17:28:53.717Z,33.17
2022-10-22T17:31:22.715Z,36.08
2022-10-22T17:33:51.746Z,23.52
2022-10-22T17:36:20.299Z,34.38
2022-10-22T17:38:52.952Z,40.55
2022-10-22T17:41:22.745Z,36.88
2022-10-22T17:43:49.838Z,20.75
2022-10-22T17:46:22.467Z,17.73
2022-10-22T17:48:53.297Z,27.48
2022-10-22T17:51:21.408Z,23.33
2022-10-22T17:53:50.182Z,19.45
2022-10-22T17:56:20.637Z,18.40
2022-10-22T17:58:47.963Z,34.67
2022-10-22T18:01:32.718Z,10.65
2022-10-22T18:04:02.287Z,15.90
2022-10-22T18:06:29.766Z,16.17
2022-10-22T18:08:56.649Z,12.20
2022-10-22T18:11:25.579Z,11.60
2022-10-22T18:13:55.019Z,23.30
2022-10-22T18:16:22.448Z,16.08
2022-10-22T18:18:51.352Z,13.15
2022-10-22T18:21:19.379Z,17.50
2022-10-22T18:23:46.794Z,18.77
2022-10-22T18:26:14.745Z,17.10
2022-10-22T18:28:41.653Z,15.13
2022-10-22T18:31:10.403Z,21.48
2022-10-22T18:33:37.725Z,10.38
2022-10-22T18:36:09.306Z,18.02
2022-10-22T18:38:38.285Z,15.70
2022-10-22T18:41:13.517Z,11.00
2022-10-22T18:43:40.361Z,9.07
2022-10-22T18:46:08.193Z,11.38
2022-10-22T18:48:38.144Z,7.80
2022-10-22T18:51:08.694Z,14.53
2022-10-22T18:53:36.720Z,14.50
2022-10-22T18:56:11.769Z,16.47
2022-10-22T18:58:39.813Z,13.30
2022-10-22T19:01:11.531Z,13.07
2022-10-22T19:03:38.415Z,11.90
2022-10-22T19:06:05.808Z,13.13
2022-10-22T19:08:34.362Z,11.70
2022-10-22T19:11:01.818Z,16.92
2022-10-22T19:13:28.883Z,14.05
2022-10-22T19:16:02.752Z,10.98
2022-10-22T19:18:29.630Z,14.48
2022-10-22T19:21:01.648Z,13.10
2022-10-22T19:23:32.714Z,10.52
2022-10-22T19:26:13.679Z,24.17
2022-10-22T19:28:41.171Z,13.15
2022-10-22T19:31:09.635Z,17.50
2022-10-22T19:33:37.284Z,25.17
2022-10-22T19:36:12.698Z,15.38
2022-10-22T19:38:41.422Z,16.40
2022-10-22T19:41:13.123Z,18.25
2022-10-22T19:43:43.783Z,18.10
2022-10-22T19:46:11.486Z,13.82
2022-10-22T19:48:38.425Z,21.60
2022-10-22T19:51:09.367Z,15.50
2022-10-22T19:53:38.278Z,22.30
2022-10-22T19:56:07.351Z,19.35
2022-10-22T19:58:34.824Z,20.70
2022-10-22T20:01:11.008Z,20.33
2022-10-22T20:03:42.370Z,24.17
2022-10-22T20:06:11.270Z,20.13
2022-10-22T20:08:40.061Z,22.77
2022-10-22T20:11:13.238Z,18.05
2022-10-22T20:16:14.852Z,13.73
2022-10-22T20:18:41.694Z,24.63
2022-10-22T20:21:13.249Z,16.55
2022-10-22T20:23:40.127Z,17.10
2022-10-22T20:26:07.119Z,15.90
2022-10-22T20:28:34.002Z,19.70
2022-10-22T20:31:00.826Z,21.73
2022-10-22T20:33:27.717Z,20.13
2022-10-22T20:36:02.280Z,21.90
2022-10-22T20:38:29.521Z,21.95
2022-10-22T20:41:11.813Z,14.75
2022-10-22T20:43:38.635Z,24.08
2022-10-22T20:46:05.850Z,15.50
2022-10-22T20:48:33.412Z,16.92
2022-10-22T20:51:00.855Z,17.35
2022-10-22T20:53:28.156Z,22.88
2022-10-22T20:55:58.433Z,20.52
2022-10-22T20:58:27.206Z,23.95
2022-10-22T21:00:55.489Z,22.97
2022-10-22T21:03:23.255Z,21.40
2022-10-22T21:05:50.165Z,21.50
2022-10-22T21:08:19.668Z,28.50
2022-10-22T21:10:48.804Z,26.57
2022-10-22T21:13:17.164Z,26.80
2022-10-22T21:15:44.042Z,20.63
2022-10-22T21:18:11.254Z,19.23
2022-10-22T21:20:39.692Z,20.48
2022-10-22T21:23:06.986Z,23.23
2022-10-22T21:25:34.555Z,21.50
2022-10-22T21:28:01.667Z,23.33
2022-10-22T21:30:28.437Z,23.83
2022-10-22T21:32:56.834Z,21.10
2022-10-22T21:35:24.355Z,22.65
2022-10-22T21:37:51.263Z,22.08
2022-10-22T21:40:18.113Z,22.98
2022-10-22T21:42:45.035Z,17.53
2022-10-22T21:45:13.611Z,20.92
2022-10-22T21:47:41.968Z,15.18
2022-10-22T21:50:09.396Z,17.77
2022-10-22T21:52:36.287Z,22.30
2022-10-22T21:55:03.253Z,17.38
2022-10-22T21:57:30.143Z,29.25
2022-10-22T21:59:56.976Z,20.77
2022-10-22T22:02:24.024Z,21.90
2022-10-22T22:04:54.764Z,23.13
2022-10-22T22:07:22.090Z,22.58
2022-10-22T22:09:50.228Z,22.70
2022-10-22T22:12:18.359Z,19.80
2022-10-22T22:14:45.260Z,21.30
2022-10-22T22:17:12.410Z,23.15
2022-10-22T22:19:39.288Z,20.08
2022-10-22T22:22:06.088Z,21.80
2022-10-22T22:24:33.118Z,17.98
2022-10-22T22:27:00.247Z,22.38
2022-10-22T22:29:27.087Z,26.13
2022-10-22T22:31:53.982Z,21.80
2022-10-22T22:34:20.881Z,22.27
2022-10-22T22:36:49.365Z,21.65
2022-10-22T22:39:22.772Z,22.38
2022-10-22T22:41:49.886Z,24.92
2022-10-22T22:44:17.204Z,23.90
2022-10-22T22:46:44.650Z,25.48
2022-10-22T22:49:13.193Z,23.10
2022-10-22T22:51:40.149Z,17.88
2022-10-22T22:54:07.129Z,20.77
2022-10-22T22:56:37.222Z,21.98
2022-10-22T22:59:06.036Z,24.00
2022-10-22T23:01:34.294Z,23.50
2022-10-22T23:04:13.536Z,19.92
2022-10-22T23:06:40.652Z,23.38
2022-10-22T23:09:10.557Z,19.63
2022-10-22T23:11:38.289Z,24.42
2022-10-22T23:14:07.010Z,18.98
2022-10-22T23:16:36.844Z,18.85
2022-10-22T23:19:05.425Z,18.20
2022-10-22T23:21:38.899Z,20.20
2022-10-22T23:24:11.685Z,18.08
2022-10-22T23:26:41.812Z,20.83
2022-10-22T23:29:11.606Z,19.65
2022-10-22T23:31:38.818Z,19.67
2022-10-22T23:34:06.737Z,21.13
2022-10-22T23:36:37.410Z,18.15
2022-10-22T23:39:10.648Z,22.98
2022-10-22T23:41:37.877Z,15.90
2022-10-22T23:44:05.732Z,20.05
2022-10-22T23:46:33.432Z,18.45
2022-10-22T23:49:01.150Z,20.23
2022-10-22T23:51:28.305Z,21.33
2022-10-22T23:53:57.643Z,19.90
2022-10-22T23:56:24.632Z,19.83
2022-10-22T23:58:52.996Z,19.58
